Time;durP1;ratioP1;P1;durP2;ratioP2;P2;SDS_P1;SDS_P2;PMS_P1;PMS_P2;Temp;Humidity;BMP_temperature;BMP_pressure;BME280_temperature;BME280_humidity;BME280_pressure;Samples;Min_cycle;Max_cycle;Signal;HPM_P1;HPM_P2
2022/09/18 00:09:16;;;;;;;13.75;1.42;;;;;;;10.58;97.99;100912.66;20934451;28;20052;-70
2022/09/18 00:19:38;;;;;;;10.10;1.10;;;;;;;10.65;97.48;100903.50;20928899;28;20041;-70
2022/09/18 00:29:59;;;;;;;6.57;1.40;;;;;;;10.68;96.00;100907.72;20931028;28;20053;-70
2022/09/18 00:40:21;;;;;;;7.40;1.03;;;;;;;10.59;96.03;100923.91;20932173;28;20098;-70
2022/09/18 00:50:43;;;;;;;5.53;1.00;;;;;;;10.65;95.05;100907.91;20956423;28;20088;-70
2022/09/18 01:01:06;;;;;;;5.25;1.00;;;;;;;10.56;95.02;100911.91;20943446;28;20045;-69
2022/09/18 01:11:30;;;;;;;12.23;0.95;;;;;;;10.33;99.85;100910.84;20965770;28;20094;-70
2022/09/18 01:22:17;;;;;;;5.25;0.90;;;;;;;10.15;100.00;100911.97;20938292;28;20485;-70
2022/09/18 01:32:44;;;;;;;4.00;0.70;;;;;;;10.23;100.00;100904.53;20956786;28;20045;-69
2022/09/18 01:43:09;;;;;;;8.70;1.30;;;;;;;10.34;99.04;100902.06;20920321;28;20099;-72
2022/09/18 01:53:42;;;;;;;7.32;0.70;;;;;;;10.17;99.97;100894.50;20944492;28;20049;-72
2022/09/18 02:04:13;;;;;;;12.02;1.63;;;;;;;9.99;100.00;100898.22;20946167;28;20472;-70
2022/09/18 02:14:45;;;;;;;8.13;1.40;;;;;;;9.97;100.00;100881.81;20984261;28;20036;-70
2022/09/18 02:25:10;;;;;;;11.27;1.38;;;;;;;9.91;100.00;100864.81;20921237;28;20105;-70
2022/09/18 02:35:41;;;;;;;4.78;0.88;;;;;;;9.94;100.00;100868.97;20947974;28;20094;-69
2022/09/18 02:46:18;;;;;;;8.67;1.07;;;;;;;9.93;100.00;100864.69;20934106;28;20048;-71
2022/09/18 02:56:54;;;;;;;9.23;1.65;;;;;;;10.10;100.00;100882.78;20969442;28;20053;-70
2022/09/18 03:07:18;;;;;;;5.47;0.88;;;;;;;10.21;100.00;100880.31;20938422;28;20371;-70
2022/09/18 03:17:40;;;;;;;7.47;1.00;;;;;;;10.21;100.00;100868.16;20963766;28;20143;-70
2022/09/18 03:28:01;;;;;;;3.23;0.80;;;;;;;10.25;100.00;100874.84;20967119;28;20451;-71
2022/09/18 03:38:23;;;;;;;11.57;1.35;;;;;;;10.19;100.00;100867.41;20931148;28;20739;-69
2022/09/18 03:48:44;;;;;;;11.48;1.30;;;;;;;10.11;100.00;100874.03;20930680;28;20098;-70
2022/09/18 03:59:06;;;;;;;11.70;1.33;;;;;;;10.00;100.00;100855.63;20937825;28;20106;-70
2022/09/18 04:09:27;;;;;;;9.43;1.43;;;;;;;9.94;100.00;100856.81;20923583;28;20067;-70
2022/09/18 04:19:49;;;;;;;6.70;1.10;;;;;;;9.81;100.00;100849.84;20919498;28;20044;-70
2022/09/18 04:30:14;;;;;;;3.97;0.93;;;;;;;9.85;100.00;100846.94;20926149;28;20302;-71
2022/09/18 04:40:36;;;;;;;5.40;0.90;;;;;;;9.88;100.00;100851.16;20940613;28;20458;-70
2022/09/18 04:50:57;;;;;;;6.65;0.82;;;;;;;9.91;100.00;100835.31;20937007;28;20056;-70
2022/09/18 05:01:19;;;;;;;14.47;1.40;;;;;;;9.99;100.00;100843.53;20949252;28;20040;-71
2022/09/18 05:11:40;;;;;;;6.77;1.00;;;;;;;9.95;100.00;100826.38;20914406;28;20098;-69
2022/09/18 05:22:02;;;;;;;8.27;1.13;;;;;;;9.88;100.00;100840.72;20927145;28;20360;-71
2022/09/18 05:32:23;;;;;;;5.50;0.70;;;;;;;10.02;100.00;100838.97;20918428;28;20052;-71
2022/09/18 05:42:46;;;;;;;12.37;1.30;;;;;;;10.18;100.00;100836.25;20930147;28;20066;-70
2022/09/18 05:53:13;;;;;;;6.05;1.13;;;;;;;10.30;100.00;100840.69;20919483;28;20049;-70
2022/09/18 06:03:35;;;;;;;7.10;0.80;;;;;;;10.42;100.00;100856.38;20924988;28;20048;-67
2022/09/18 06:13:57;;;;;;;15.07;1.50;;;;;;;10.62;100.00;100841.13;20928738;28;20110;-67
2022/09/18 06:24:18;;;;;;;12.70;1.33;;;;;;;10.75;100.00;100842.03;20932529;28;20098;-68
2022/09/18 06:34:39;;;;;;;6.83;1.10;;;;;;;10.94;100.00;100841.66;20922461;28;20053;-68
2022/09/18 06:45:01;;;;;;;5.70;0.93;;;;;;;11.11;100.00;100847.44;20937905;28;20485;-69
2022/09/18 06:55:22;;;;;;;10.10;1.10;;;;;;;11.02;100.00;100874.13;20929565;28;20750;-69
2022/09/18 07:05:44;;;;;;;7.97;1.57;;;;;;;11.13;100.00;100858.59;20943036;28;20549;-67
2022/09/18 07:16:06;;;;;;;6.43;0.90;;;;;;;11.30;100.00;100840.06;20932173;28;20045;-69
2022/09/18 07:26:27;;;;;;;;;;;;;;;11.46;100.00;100834.63;20930365;28;20049;-67
2022/09/18 07:36:49;;;;;;;6.73;1.00;;;;;;;11.56;100.00;100842.63;20948263;28;19967;-69
2022/09/18 07:47:11;;;;;;;6.70;1.08;;;;;;;11.88;100.00;100835.16;20940901;28;20103;-66
2022/09/18 07:57:32;;;;;;;6.40;1.02;;;;;;;11.79;100.00;100818.34;20921678;28;20044;-65
2022/09/18 08:07:54;;;;;;;3.23;0.90;;;;;;;11.76;100.00;100820.34;20914947;28;20044;-66
2022/09/18 08:18:16;;;;;;;9.10;1.07;;;;;;;12.20;100.00;100816.25;20914115;28;20490;-68
2022/09/18 08:28:37;;;;;;;10.38;1.10;;;;;;;12.32;99.65;100825.84;20913517;28;20043;-67
2022/09/18 08:38:59;;;;;;;6.20;1.17;;;;;;;12.50;100.00;100821.91;20912322;28;20102;-67
2022/09/18 08:49:36;;;;;;;8.15;1.13;;;;;;;12.44;99.79;100837.19;20914316;28;20071;-68
2022/09/18 09:00:00;;;;;;;9.73;1.00;;;;;;;12.36;100.00;100818.63;20912608;28;20501;-66
2022/09/18 09:10:44;;;;;;;6.72;1.05;;;;;;;12.45;100.00;100804.88;20922799;28;20044;-66
2022/09/18 09:21:21;;;;;;;9.73;1.42;;;;;;;12.55;98.99;100791.03;20905665;28;20098;-66
2022/09/18 09:31:47;;;;;;;6.28;1.10;;;;;;;12.64;95.85;100782.50;20944039;28;20049;-66
2022/09/18 09:42:20;;;;;;;4.80;0.98;;;;;;;12.88;94.24;100786.75;20929940;28;20045;-67
2022/09/18 09:52:45;;;;;;;6.35;1.15;;;;;;;13.69;90.64;100780.47;20935363;28;20044;-69
2022/09/18 10:03:44;;;;;;;5.72;1.00;;;;;;;12.93;97.07;100795.16;20930906;28;20497;-66
2022/09/18 10:14:16;;;;;;;4.50;0.80;;;;;;;12.45;100.00;100795.25;20919427;28;20186;-63
2022/09/18 10:24:49;;;;;;;11.45;0.90;;;;;;;12.21;100.00;100817.94;20947699;28;20048;-64
2022/09/18 10:35:41;;;;;;;7.78;1.45;;;;;;;12.46;100.00;100804.75;20910633;28;20049;-64
2022/09/18 10:46:02;;;;;;;6.20;1.10;;;;;;;12.65;100.00;100785.03;20936124;28;20068;-64
2022/09/18 10:56:24;;;;;;;6.80;0.95;;;;;;;13.15;100.00;100769.00;20916419;28;20037;-64
2022/09/18 11:06:45;;;;;;;5.10;1.10;;;;;;;13.07;100.00;100810.66;20924168;28;20567;-64
2022/09/18 11:17:20;;;;;;;5.63;1.02;;;;;;;12.58;100.00;100798.66;20921224;28;20044;-63
2022/09/18 11:27:47;;;;;;;6.07;1.50;;;;;;;12.65;100.00;100782.41;20935810;28;20045;-64
2022/09/18 11:38:13;;;;;;;5.57;1.00;;;;;;;12.61;100.00;100767.88;20919584;28;20044;-64
2022/09/18 11:48:43;;;;;;;10.15;1.20;;;;;;;12.82;99.00;100760.22;20937510;28;20103;-66
2022/09/18 11:59:23;;;;;;;7.72;1.05;;;;;;;12.67;97.94;100751.72;20919338;28;20543;-65
2022/09/18 12:10:06;;;;;;;3.83;0.80;;;;;;;13.36;93.47;100746.44;20915142;28;20111;-65
2022/09/18 12:20:47;;;;;;;11.18;1.45;;;;;;;13.53;89.19;100748.59;20932246;28;20051;-64
2022/09/18 12:31:38;;;;;;;3.43;0.83;;;;;;;13.51;76.06;100766.19;20926477;28;20044;-61
2022/09/18 12:42:14;;;;;;;2.73;0.80;;;;;;;13.16;80.84;100741.88;20911034;28;20120;-64
2022/09/18 12:52:53;;;;;;;5.13;1.00;;;;;;;13.58;73.94;100725.47;20913439;28;20036;-63
2022/09/18 13:03:36;;;;;;;5.15;0.80;;;;;;;14.04;69.22;100713.84;20910456;28;20072;-64
2022/09/18 13:14:21;;;;;;;6.55;1.10;;;;;;;14.09;69.76;100726.59;20916860;28;20112;-66
2022/09/18 13:24:47;;;;;;;7.05;1.10;;;;;;;14.57;71.50;100723.44;20913501;28;20101;-65
2022/09/18 13:35:11;;;;;;;9.52;0.93;;;;;;;14.96;70.15;100702.59;20916105;28;20114;-70
2022/09/18 13:45:37;;;;;;;7.22;1.73;;;;;;;15.36;67.50;100703.50;20917812;28;20054;-69
2022/09/18 13:55:59;;;;;;;12.30;1.40;;;;;;;14.85;64.54;100702.63;20934181;28;20056;-68
2022/09/18 14:06:36;;;;;;;9.77;1.40;;;;;;;15.17;66.50;100677.13;20913794;28;20049;-68
2022/09/18 14:17:13;;;;;;;10.82;1.58;;;;;;;14.91;63.61;100670.63;20923837;28;20098;-68
2022/09/18 14:27:43;;;;;;;7.80;1.10;;;;;;;15.14;55.85;100677.38;20929081;28;20540;-68
2022/09/18 14:38:27;;;;;;;6.35;1.17;;;;;;;15.08;59.16;100688.41;20942718;28;20040;-68
2022/09/18 14:48:49;;;;;;;12.23;1.80;;;;;;;15.03;66.20;100664.34;20932373;28;20094;-67
2022/09/18 14:59:16;;;;;;;8.15;1.20;;;;;;;15.25;57.31;100664.22;20922219;28;20099;-67
2022/09/18 15:09:38;;;;;;;9.13;1.40;;;;;;;14.76;61.24;100698.16;20951044;28;20048;-67
2022/09/18 15:20:15;;;;;;;12.95;1.35;;;;;;;14.94;64.82;100691.38;20936001;28;20041;-66
2022/09/18 15:30:37;;;;;;;11.57;1.60;;;;;;;14.05;77.64;100738.25;20938361;28;20578;-65
2022/09/18 15:41:20;;;;;;;3.88;0.82;;;;;;;12.82;86.43;100711.34;20943390;28;20044;-65
2022/09/18 15:51:42;;;;;;;5.88;0.90;;;;;;;12.37;94.23;100697.44;20938519;28;20554;-64
2022/09/18 16:02:26;;;;;;;;;;;;;;;12.29;96.65;100698.00;20931799;28;20049;-65
2022/09/18 16:12:49;;;;;;;5.35;1.05;;;;;;;12.22;98.16;100703.78;20953837;28;20357;-64
2022/09/18 16:23:23;;;;;;;6.75;0.70;;;;;;;12.49;91.96;100681.66;20943637;28;20067;-65
2022/09/18 16:33:55;;;;;;;6.20;1.05;;;;;;;12.34;91.69;100664.50;20952335;28;20070;-66
2022/09/18 16:44:17;;;;;;;3.58;1.10;;;;;;;12.35;92.01;100667.97;20932546;28;20079;-65
2022/09/18 16:54:39;;;;;;;6.03;1.20;;;;;;;12.28;91.79;100658.88;20930726;28;20114;-66
2022/09/18 17:05:01;;;;;;;6.10;1.15;;;;;;;12.28;90.29;100664.97;20941902;28;20049;-66
2022/09/18 17:15:23;;;;;;;2.88;0.88;;;;;;;12.15;89.84;100669.41;20924010;28;20048;-63
2022/09/18 17:25:44;;;;;;;8.23;0.80;;;;;;;12.10;91.11;100665.47;20927022;28;20444;-63
2022/09/18 17:36:08;;;;;;;7.57;1.20;;;;;;;11.93;92.27;100679.75;20912327;28;20045;-63
2022/09/18 17:46:30;;;;;;;9.00;1.00;;;;;;;12.03;91.83;100685.16;20915889;28;20060;-63
2022/09/18 17:56:51;;;;;;;7.60;1.20;;;;;;;11.91;93.84;100675.59;20898293;28;20129;-62
2022/09/18 18:07:13;;;;;;;13.70;1.23;;;;;;;11.82;94.40;100671.03;20943668;28;20036;-62
2022/09/18 18:17:35;;;;;;;7.75;1.25;;;;;;;11.87;95.46;100674.97;20965813;28;20044;-63
2022/09/18 18:27:56;;;;;;;11.43;1.43;;;;;;;11.86;96.80;100685.53;20917737;28;20049;-61
2022/09/18 18:38:19;;;;;;;8.57;1.40;;;;;;;11.67;100.00;100708.69;20930584;28;20349;-63
2022/09/18 18:48:42;;;;;;;10.93;2.15;;;;;;;11.65;100.00;100732.31;20917661;28;20296;-61
2022/09/18 18:59:06;;;;;;;17.55;1.70;;;;;;;11.49;100.00;100736.06;20922652;28;20052;-60
2022/09/18 19:09:29;;;;;;;9.98;2.10;;;;;;;11.40;100.00;100728.03;20957049;28;20052;-61
2022/09/18 19:19:51;;;;;;;13.82;2.28;;;;;;;11.53;100.00;100737.53;20974313;28;20057;-62
2022/09/18 19:30:13;;;;;;;7.75;1.55;;;;;;;11.46;100.00;100765.00;20934911;28;20040;-62
2022/09/18 19:40:37;;;;;;;8.07;1.25;;;;;;;11.37;100.00;100789.09;20926376;28;20048;-62
2022/09/18 19:50:59;;;;;;;9.43;1.20;;;;;;;11.24;100.00;100806.53;20918799;28;20048;-62
2022/09/18 20:01:20;;;;;;;7.87;1.93;;;;;;;11.23;100.00;100832.75;20916578;28;20681;-62
2022/09/18 20:11:42;;;;;;;8.43;1.13;;;;;;;11.34;100.00;100854.56;20902548;28;20804;-62
2022/09/18 20:22:08;;;;;;;9.00;1.13;;;;;;;11.32;100.00;100868.66;20928242;28;20516;-61
2022/09/18 20:32:30;;;;;;;7.63;1.33;;;;;;;11.29;100.00;100867.09;20913091;28;20053;-61
2022/09/18 20:42:52;;;;;;;7.25;1.67;;;;;;;11.30;100.00;100876.59;20917276;28;20061;-61
2022/09/18 20:53:13;;;;;;;10.00;1.60;;;;;;;11.19;100.00;100899.97;20927665;28;20105;-62
2022/09/18 21:03:36;;;;;;;9.27;1.10;;;;;;;11.15;100.00;100927.19;20927574;28;20045;-62
2022/09/18 21:14:02;;;;;;;5.45;0.80;;;;;;;11.13;100.00;100942.09;20913228;28;20052;-62
2022/09/18 21:24:24;;;;;;;7.47;0.93;;;;;;;11.04;100.00;100953.13;20933741;28;20176;-62
2022/09/18 21:34:46;;;;;;;5.00;0.75;;;;;;;11.11;100.00;100964.00;20908945;28;20462;-62
2022/09/18 21:45:08;;;;;;;3.50;0.80;;;;;;;11.07;100.00;100963.34;20920526;28;20056;-62
2022/09/18 21:55:36;;;;;;;8.88;0.82;;;;;;;11.04;100.00;100958.34;20919869;28;20103;-61
2022/09/18 22:05:59;;;;;;;3.78;0.63;;;;;;;10.90;100.00;100975.78;20937085;28;20544;-62
2022/09/18 22:16:25;;;;;;;4.25;0.77;;;;;;;10.80;100.00;100999.00;20934879;28;20512;-62
2022/09/18 22:26:55;;;;;;;5.43;0.88;;;;;;;10.78;100.00;101003.47;20919752;28;20128;-62
2022/09/18 22:37:17;;;;;;;5.05;1.05;;;;;;;10.89;100.00;101016.69;20925436;28;20060;-62
2022/09/18 22:47:38;;;;;;;2.37;0.97;;;;;;;10.74;100.00;101032.44;20948438;28;20052;-62
2022/09/18 22:58:03;;;;;;;2.33;0.60;;;;;;;10.79;100.00;101035.63;20982922;28;20045;-62
2022/09/18 23:08:24;;;;;;;2.70;0.75;;;;;;;10.84;100.00;101044.81;20940533;28;20053;-62
2022/09/18 23:18:54;;;;;;;3.60;0.83;;;;;;;10.84;100.00;101054.44;20938293;28;20053;-62
2022/09/18 23:29:19;;;;;;;3.42;0.55;;;;;;;10.82;100.00;101062.34;20940213;28;20041;-62
2022/09/18 23:39:41;;;;;;;3.13;0.85;;;;;;;10.83;100.00;101069.22;20932083;28;20048;-62
2022/09/18 23:50:03;;;;;;;5.10;0.73;;;;;;;10.84;100.00;101078.72;20945499;28;20472;-62
